Main page
METAR-TAF:

METAR-TAF

Airports :

Amman Civil Airport

Amman, Jordan

latitude: 31-59N, longitude: 035-59E, elevation: 767 m

Current weather observation

The report was made 28 minutes ago, at 07:00 UTC
Wind 11 kt from the West/Northwest
Temperature 22°C
Humidity 53%
Pressure 1015 hPa
Visibility 10 km or more
Few clouds at a height of 3000 ft

METAR: OJAM 150700Z 29011KT 9999 FEW030 22/12 Q1015 NOSIG

Time: 10:28 (07:28 UTC)

Forecast

The report was made 2 hours and 28 minutes ago, at 05:00 UTC
Forecast valid from 15 at 06 UTC to 16 at 12 UTC
Wind 10 kt from the West/Northwest
Visibility: 5000 m
Few clouds at a height of 3000 ft
haze
Probability 30% :
Temporary
from 15 at 09 UTC to 15 at 15 UTC
Wind 16 kt from the West/Northwest
Visibility: 4000 m
Blowing dust

TAF: OJAM 150500Z 1506/1612 29010KT 5000 HZ FEW030 PROB30 TEMPO 1509/1515 30016KT 4000 BLDU

Weather observations and forecasts of more than 4000 airports (METAR and TAF reports).

The available stations are represented by yellow and red dots on the map.

Hover mouse over dot to see the name of the station.

Then click to see weather observations and forecasts.

To change the map : click on the green buttons with a black cross to zoom in, on the green button with a dash to zoom out, or on the green arrows for adjacent maps.


METAR-TAF: